USY482 LEMG-EGKK
Flight info
| Callsign | USY482 |
|---|---|
| Flight time | N/A |
| Altitude | 38000 |
| Route | BLN N865 VTB N867 NENEM DCT YURZI DCT ERIGA DCT ARTIV DCT REVTU/N0451F340 UP88 VASUX |
| Aircraft | A346/H-SDE2E3FGHIJ3J4J5M1RWXY/LB1D1 |
Departure
| Time | 2026-05-07 08:40 |
|---|---|
| Airport | Málaga-Costa del Sol Airport (LEMG) |
Arrival
| Time | N/A |
|---|---|
| Airport | London Gatwick Airport (EGKK) |
| Time | Latitude | Longitude | Altitude | Speed | Heading |
|---|---|---|---|---|---|
| 2026-05-07 08:14 | 36.67466 | -4.49394 | 50 ft | 0 kts | 89° |
| 2026-05-07 08:25 | 36.67466 | -4.49397 | 50 ft | 2 kts | 89° |
| 2026-05-07 08:25 | 36.67465 | -4.49430 | 49 ft | 4 kts | 85° |
| 2026-05-07 08:25 | 36.67461 | -4.49460 | 43 ft | 4 kts | 68° |
| 2026-05-07 08:26 | 36.67429 | -4.49498 | 43 ft | 4 kts | 19° |
| 2026-05-07 08:26 | 36.67409 | -4.49501 | 44 ft | 4 kts | 344° |
| 2026-05-07 08:26 | 36.67393 | -4.49489 | 44 ft | 4 kts | 309° |
| 2026-05-07 08:27 | 36.67378 | -4.49461 | 44 ft | 4 kts | 302° |
| 2026-05-07 08:27 | 36.67364 | -4.49436 | 44 ft | 2 kts | 311° |
| 2026-05-07 08:27 | 36.67363 | -4.49435 | 44 ft | 0 kts | 311° |
| 2026-05-07 08:30 | 36.67365 | -4.49438 | 44 ft | 2 kts | 311° |
| 2026-05-07 08:31 | 36.67383 | -4.49463 | 44 ft | 6 kts | 311° |
| 2026-05-07 08:31 | 36.67421 | -4.49516 | 44 ft | 10 kts | 311° |
| 2026-05-07 08:31 | 36.67478 | -4.49596 | 50 ft | 14 kts | 311° |
| 2026-05-07 08:31 | 36.67552 | -4.49700 | 51 ft | 17 kts | 311° |
| 2026-05-07 08:32 | 36.67641 | -4.49824 | 51 ft | 21 kts | 312° |
| 2026-05-07 08:32 | 36.67744 | -4.49967 | 52 ft | 20 kts | 311° |
| 2026-05-07 08:32 | 36.67833 | -4.50093 | 52 ft | 19 kts | 311° |
| 2026-05-07 08:32 | 36.67918 | -4.50118 | 49 ft | 13 kts | 45° |
| 2026-05-07 08:33 | 36.67888 | -4.50022 | 51 ft | 16 kts | 142° |
| 2026-05-07 08:33 | 36.67814 | -4.49926 | 48 ft | 9 kts | 132° |
| 2026-05-07 08:33 | 36.67797 | -4.49877 | 51 ft | 6 kts | 75° |
| 2026-05-07 08:33 | 36.67828 | -4.49822 | 50 ft | 10 kts | 48° |
| 2026-05-07 08:34 | 36.67865 | -4.49778 | 50 ft | 12 kts | 41° |
| 2026-05-07 08:34 | 36.67938 | -4.49698 | 50 ft | 16 kts | 41° |
| 2026-05-07 08:34 | 36.68029 | -4.49597 | 50 ft | 19 kts | 41° |
| 2026-05-07 08:34 | 36.68174 | -4.49436 | 50 ft | 23 kts | 41° |
| 2026-05-07 08:35 | 36.68277 | -4.49320 | 49 ft | 6 kts | 48° |
| 2026-05-07 08:35 | 36.68277 | -4.49248 | 49 ft | 14 kts | 115° |
| 2026-05-07 08:35 | 36.68241 | -4.49161 | 48 ft | 19 kts | 118° |
| 2026-05-07 08:35 | 36.68163 | -4.48982 | 47 ft | 27 kts | 117° |
| 2026-05-07 08:36 | 36.68075 | -4.48772 | 44 ft | 28 kts | 117° |
| 2026-05-07 08:36 | 36.67983 | -4.48550 | 48 ft | 29 kts | 117° |
| 2026-05-07 08:36 | 36.67896 | -4.48341 | 47 ft | 27 kts | 117° |
| 2026-05-07 08:36 | 36.67806 | -4.48125 | 45 ft | 28 kts | 117° |
| 2026-05-07 08:37 | 36.67728 | -4.47942 | 42 ft | 20 kts | 120° |
| 2026-05-07 08:37 | 36.67704 | -4.47826 | 40 ft | 13 kts | 74° |
| 2026-05-07 08:37 | 36.67748 | -4.47721 | 41 ft | 14 kts | 49° |
| 2026-05-07 08:37 | 36.67799 | -4.47712 | 42 ft | 9 kts | 331° |
| 2026-05-07 08:38 | 36.67828 | -4.47751 | 43 ft | 0 kts | 298° |
| 2026-05-07 08:38 | 36.67828 | -4.47752 | 43 ft | 0 kts | 298° |
| 2026-05-07 08:39 | 36.67829 | -4.47755 | 43 ft | 4 kts | 298° |
| 2026-05-07 08:39 | 36.67941 | -4.48013 | 46 ft | 71 kts | 298° |
| 2026-05-07 08:39 | 36.68285 | -4.48833 | 51 ft | 139 kts | 297° |
| 2026-05-07 08:39 | 36.68827 | -4.50115 | 98 ft | 190 kts | 296° |
| 2026-05-07 08:40 | 36.69517 | -4.51552 | 786 ft | 193 kts | 309° |
| 2026-05-07 08:40 | 36.70452 | -4.52766 | 1607 ft | 195 kts | 318° |
| 2026-05-07 08:40 | 36.71449 | -4.53926 | 2336 ft | 200 kts | 316° |
| 2026-05-07 08:40 | 36.72461 | -4.55209 | 2813 ft | 215 kts | 313° |
| 2026-05-07 08:41 | 36.73490 | -4.56648 | 3339 ft | 227 kts | 310° |
| 2026-05-07 08:41 | 36.74525 | -4.58177 | 3962 ft | 235 kts | 309° |
| 2026-05-07 08:41 | 36.75788 | -4.59455 | 4736 ft | 241 kts | 333° |
| 2026-05-07 08:41 | 36.77375 | -4.60143 | 5652 ft | 243 kts | 342° |
| 2026-05-07 08:42 | 36.79021 | -4.60695 | 6478 ft | 246 kts | 343° |
| 2026-05-07 08:42 | 36.80711 | -4.61153 | 7234 ft | 252 kts | 358° |
| 2026-05-07 08:42 | 36.82410 | -4.60624 | 8013 ft | 259 kts | 33° |
| 2026-05-07 08:42 | 36.83835 | -4.59173 | 8698 ft | 269 kts | 43° |
| 2026-05-07 08:43 | 36.85229 | -4.57569 | 9496 ft | 275 kts | 43° |
| 2026-05-07 08:43 | 36.86643 | -4.55948 | 10370 ft | 277 kts | 43° |
| 2026-05-07 08:43 | 36.88078 | -4.54328 | 11254 ft | 279 kts | 42° |
| 2026-05-07 08:43 | 36.89543 | -4.52693 | 12096 ft | 284 kts | 41° |
| 2026-05-07 08:44 | 36.91034 | -4.51043 | 12942 ft | 289 kts | 42° |
| 2026-05-07 08:44 | 36.92556 | -4.49367 | 13787 ft | 294 kts | 42° |
| 2026-05-07 08:44 | 36.94102 | -4.47658 | 14511 ft | 299 kts | 42° |
| 2026-05-07 08:44 | 36.95651 | -4.45942 | 15253 ft | 303 kts | 41° |
| 2026-05-07 08:45 | 36.97258 | -4.44193 | 15992 ft | 308 kts | 39° |
| 2026-05-07 08:45 | 36.98981 | -4.42555 | 16701 ft | 315 kts | 34° |
| 2026-05-07 08:45 | 37.00853 | -4.41018 | 17190 ft | 331 kts | 32° |
| 2026-05-07 08:45 | 37.02863 | -4.39428 | 17570 ft | 349 kts | 31° |
| 2026-05-07 08:46 | 37.04975 | -4.37766 | 17937 ft | 367 kts | 31° |
| 2026-05-07 08:46 | 37.07192 | -4.36016 | 18277 ft | 385 kts | 31° |
| 2026-05-07 08:46 | 37.09508 | -4.34182 | 18573 ft | 403 kts | 31° |
| 2026-05-07 08:46 | 37.11927 | -4.32262 | 18860 ft | 420 kts | 31° |
| 2026-05-07 08:47 | 37.14445 | -4.30258 | 19153 ft | 436 kts | 32° |
| 2026-05-07 08:47 | 37.17041 | -4.28190 | 19645 ft | 445 kts | 32° |
| 2026-05-07 08:47 | 37.19671 | -4.26092 | 20343 ft | 449 kts | 32° |
| 2026-05-07 08:47 | 37.22325 | -4.23972 | 21012 ft | 454 kts | 32° |
| 2026-05-07 08:48 | 37.24972 | -4.21856 | 21623 ft | 460 kts | 32° |
| 2026-05-07 08:48 | 37.27693 | -4.19679 | 22240 ft | 466 kts | 32° |
| 2026-05-07 08:48 | 37.30445 | -4.17476 | 22870 ft | 471 kts | 32° |
| 2026-05-07 08:48 | 37.33212 | -4.15260 | 23607 ft | 473 kts | 32° |
| 2026-05-07 08:49 | 37.36003 | -4.13021 | 24166 ft | 477 kts | 32° |
| 2026-05-07 08:49 | 37.38813 | -4.10765 | 24719 ft | 481 kts | 32° |
| 2026-05-07 08:49 | 37.41649 | -4.08488 | 25291 ft | 485 kts | 32° |
| 2026-05-07 08:49 | 37.44465 | -4.06227 | 25838 ft | 489 kts | 32° |
| 2026-05-07 08:50 | 37.47381 | -4.03881 | 26394 ft | 493 kts | 32° |
| 2026-05-07 08:50 | 37.50243 | -4.01573 | 26901 ft | 497 kts | 32° |
| 2026-05-07 08:50 | 37.53163 | -3.99217 | 27408 ft | 501 kts | 32° |
| 2026-05-07 08:50 | 37.56115 | -3.96833 | 27920 ft | 505 kts | 32° |
| 2026-05-07 08:51 | 37.59095 | -3.94425 | 28432 ft | 509 kts | 32° |
| 2026-05-07 08:51 | 37.62087 | -3.92005 | 28996 ft | 511 kts | 32° |
| 2026-05-07 08:51 | 37.65081 | -3.89581 | 29744 ft | 510 kts | 32° |
| 2026-05-07 08:51 | 37.68063 | -3.87169 | 30453 ft | 508 kts | 32° |
| 2026-05-07 08:52 | 37.71031 | -3.84757 | 31077 ft | 507 kts | 32° |
| 2026-05-07 08:52 | 37.73994 | -3.82344 | 31651 ft | 506 kts | 32° |
| 2026-05-07 08:52 | 37.76956 | -3.79941 | 32221 ft | 506 kts | 31° |
| 2026-05-07 08:52 | 37.79983 | -3.77651 | 32760 ft | 506 kts | 28° |
| 2026-05-07 08:53 | 37.83104 | -3.75589 | 33326 ft | 505 kts | 24° |
| 2026-05-07 08:53 | 37.86305 | -3.73779 | 33916 ft | 503 kts | 19° |
| 2026-05-07 08:53 | 37.89576 | -3.72230 | 34440 ft | 500 kts | 15° |
| 2026-05-07 08:53 | 37.92886 | -3.70915 | 34981 ft | 497 kts | 14° |
| 2026-05-07 08:54 | 37.96191 | -3.69678 | 35531 ft | 494 kts | 13° |
| 2026-05-07 08:54 | 37.99435 | -3.68474 | 36084 ft | 490 kts | 13° |
| 2026-05-07 08:54 | 38.02693 | -3.67253 | 36608 ft | 488 kts | 13° |
| 2026-05-07 08:54 | 38.05942 | -3.66022 | 37029 ft | 487 kts | 13° |
| 2026-05-07 08:55 | 38.09185 | -3.64786 | 37388 ft | 487 kts | 13° |
| 2026-05-07 08:55 | 38.12456 | -3.63664 | 37722 ft | 486 kts | 10° |
| 2026-05-07 08:55 | 38.15772 | -3.62775 | 37956 ft | 487 kts | 7° |
| 2026-05-07 08:55 | 38.19121 | -3.62133 | 37954 ft | 486 kts | 3° |
| 2026-05-07 08:56 | 38.25852 | -3.61391 | 37961 ft | 485 kts | 1° |
| 2026-05-07 08:56 | 38.32584 | -3.60767 | 37959 ft | 485 kts | 1° |
| 2026-05-07 08:57 | 38.39308 | -3.60131 | 37962 ft | 485 kts | 1° |
| 2026-05-07 08:57 | 38.46048 | -3.59481 | 37958 ft | 485 kts | 1° |
| 2026-05-07 08:58 | 38.52743 | -3.58831 | 37957 ft | 485 kts | 1° |
| 2026-05-07 08:58 | 38.59470 | -3.58176 | 37959 ft | 485 kts | 1° |
| 2026-05-07 08:59 | 38.66207 | -3.57523 | 37954 ft | 485 kts | 1° |
| 2026-05-07 08:59 | 38.72948 | -3.56862 | 37951 ft | 485 kts | 1° |
| 2026-05-07 09:00 | 38.79655 | -3.56203 | 37951 ft | 486 kts | 1° |
| 2026-05-07 09:00 | 38.86390 | -3.55545 | 37963 ft | 486 kts | 1° |
| 2026-05-07 09:01 | 38.93154 | -3.54879 | 37949 ft | 486 kts | 1° |
| 2026-05-07 09:01 | 38.99899 | -3.54212 | 37946 ft | 486 kts | 1° |
| 2026-05-07 09:02 | 39.06597 | -3.53549 | 37943 ft | 486 kts | 1° |
| 2026-05-07 09:02 | 39.13352 | -3.52879 | 37945 ft | 487 kts | 2° |
| 2026-05-07 09:03 | 39.20117 | -3.52204 | 37943 ft | 487 kts | 2° |
| 2026-05-07 09:03 | 39.26884 | -3.51527 | 37943 ft | 488 kts | 2° |
| 2026-05-07 09:04 | 39.33647 | -3.50852 | 37949 ft | 487 kts | 2° |
| 2026-05-07 09:04 | 39.40405 | -3.50173 | 37945 ft | 487 kts | 2° |
| 2026-05-07 09:05 | 39.47165 | -3.49493 | 37938 ft | 487 kts | 2° |
| 2026-05-07 09:05 | 39.53931 | -3.48812 | 37956 ft | 487 kts | 2° |
| 2026-05-07 09:06 | 39.60648 | -3.48138 | 37940 ft | 486 kts | 2° |
| 2026-05-07 09:06 | 39.67405 | -3.47464 | 37945 ft | 486 kts | 2° |
| 2026-05-07 09:07 | 39.74153 | -3.46789 | 37952 ft | 486 kts | 2° |
| 2026-05-07 09:07 | 39.80904 | -3.46060 | 37949 ft | 487 kts | 4° |
| 2026-05-07 09:08 | 39.87653 | -3.45104 | 37943 ft | 488 kts | 4° |
| 2026-05-07 09:08 | 39.94398 | -3.44134 | 37949 ft | 487 kts | 4° |
| 2026-05-07 09:09 | 40.01100 | -3.43184 | 37948 ft | 487 kts | 4° |
| 2026-05-07 09:09 | 40.07839 | -3.42234 | 37956 ft | 487 kts | 4° |
| 2026-05-07 09:10 | 40.14574 | -3.41283 | 37962 ft | 487 kts | 4° |
| 2026-05-07 09:10 | 40.21317 | -3.40331 | 37971 ft | 487 kts | 4° |
| 2026-05-07 09:11 | 40.28051 | -3.39379 | 37967 ft | 487 kts | 4° |
| 2026-05-07 09:11 | 40.34790 | -3.38424 | 37972 ft | 487 kts | 4° |
| 2026-05-07 09:12 | 40.41538 | -3.37466 | 37973 ft | 487 kts | 4° |
| 2026-05-07 09:12 | 40.48272 | -3.36510 | 37977 ft | 486 kts | 4° |
| 2026-05-07 09:13 | 40.54953 | -3.35557 | 37974 ft | 486 kts | 4° |
| 2026-05-07 09:13 | 40.61676 | -3.34596 | 37973 ft | 486 kts | 4° |
| 2026-05-07 09:14 | 40.68409 | -3.33633 | 37974 ft | 486 kts | 4° |
| 2026-05-07 09:14 | 40.75144 | -3.32667 | 37976 ft | 486 kts | 4° |
| 2026-05-07 09:15 | 40.81821 | -3.31708 | 37976 ft | 486 kts | 4° |
| 2026-05-07 09:15 | 40.88542 | -3.30741 | 37990 ft | 485 kts | 4° |
| 2026-05-07 09:16 | 40.95262 | -3.29772 | 37984 ft | 485 kts | 5° |
| 2026-05-07 09:16 | 41.01979 | -3.28800 | 37979 ft | 485 kts | 5° |
| 2026-05-07 09:17 | 41.08653 | -3.27833 | 37988 ft | 485 kts | 5° |
| 2026-05-07 09:17 | 41.15364 | -3.26860 | 37979 ft | 484 kts | 5° |
| 2026-05-07 09:18 | 41.22063 | -3.25885 | 37973 ft | 484 kts | 5° |
| 2026-05-07 09:18 | 41.28770 | -3.24907 | 37971 ft | 484 kts | 5° |
| 2026-05-07 09:19 | 41.35470 | -3.23930 | 37965 ft | 484 kts | 5° |
| 2026-05-07 09:19 | 41.42165 | -3.22950 | 37960 ft | 484 kts | 5° |
| 2026-05-07 09:20 | 41.48869 | -3.21966 | 37957 ft | 484 kts | 5° |
| 2026-05-07 09:20 | 41.55536 | -3.20985 | 37958 ft | 485 kts | 5° |
| 2026-05-07 09:21 | 41.62256 | -3.19995 | 37960 ft | 486 kts | 5° |
| 2026-05-07 09:21 | 41.68987 | -3.19002 | 37959 ft | 486 kts | 5° |
| 2026-05-07 09:22 | 41.75667 | -3.18014 | 37966 ft | 486 kts | 5° |
| 2026-05-07 09:22 | 41.82397 | -3.17017 | 37958 ft | 486 kts | 5° |
| 2026-05-07 09:23 | 41.89125 | -3.16018 | 37964 ft | 486 kts | 5° |
| 2026-05-07 09:23 | 41.94717 | -3.15186 | 37970 ft | 486 kts | 5° |
| 2026-05-07 09:24 | 42.01444 | -3.14182 | 37961 ft | 486 kts | 5° |
| 2026-05-07 09:24 | 42.08179 | -3.13176 | 37959 ft | 486 kts | 5° |
| 2026-05-07 09:25 | 42.14910 | -3.12169 | 37960 ft | 486 kts | 5° |
| 2026-05-07 09:25 | 42.21635 | -3.11159 | 37965 ft | 486 kts | 5° |
| 2026-05-07 09:26 | 42.28378 | -3.10145 | 37966 ft | 486 kts | 5° |
| 2026-05-07 09:26 | 42.35052 | -3.09140 | 37970 ft | 486 kts | 5° |
| 2026-05-07 09:27 | 42.41787 | -3.08122 | 37976 ft | 486 kts | 5° |
| 2026-05-07 09:28 | 42.51883 | -3.06594 | 37978 ft | 486 kts | 5° |
| 2026-05-07 09:28 | 42.58615 | -3.05571 | 37989 ft | 486 kts | 5° |
| 2026-05-07 09:29 | 42.65299 | -3.04551 | 37980 ft | 486 kts | 4° |
| 2026-05-07 09:29 | 42.72021 | -3.03527 | 37985 ft | 486 kts | 4° |
| 2026-05-07 09:30 | 42.78757 | -3.02499 | 37991 ft | 486 kts | 4° |
| 2026-05-07 09:30 | 42.85477 | -3.01471 | 37986 ft | 486 kts | 4° |
| 2026-05-07 09:31 | 42.92204 | -3.00438 | 37989 ft | 486 kts | 4° |
| 2026-05-07 09:31 | 42.98894 | -2.99409 | 37991 ft | 486 kts | 4° |
| 2026-05-07 09:32 | 43.05609 | -2.98373 | 37998 ft | 486 kts | 4° |
| 2026-05-07 09:32 | 43.12340 | -2.97334 | 37995 ft | 486 kts | 4° |
| 2026-05-07 09:33 | 43.19074 | -2.96291 | 38004 ft | 486 kts | 4° |
| 2026-05-07 09:33 | 43.25793 | -2.95249 | 38001 ft | 486 kts | 4° |
| 2026-05-07 09:34 | 43.32510 | -2.94204 | 37991 ft | 485 kts | 4° |
| 2026-05-07 09:34 | 43.39220 | -2.93158 | 38003 ft | 485 kts | 4° |
| 2026-05-07 09:35 | 43.45933 | -2.92111 | 38001 ft | 485 kts | 4° |
| 2026-05-07 09:35 | 43.52596 | -2.91067 | 37997 ft | 485 kts | 4° |
| 2026-05-07 09:36 | 43.59315 | -2.90012 | 37992 ft | 485 kts | 4° |
| 2026-05-07 09:36 | 43.66035 | -2.88956 | 38000 ft | 486 kts | 5° |
| 2026-05-07 09:37 | 43.72754 | -2.87897 | 37989 ft | 486 kts | 5° |
| 2026-05-07 09:37 | 43.79475 | -2.86835 | 37988 ft | 486 kts | 5° |
| 2026-05-07 09:38 | 43.86162 | -2.85775 | 37992 ft | 486 kts | 4° |
| 2026-05-07 09:38 | 43.92880 | -2.84709 | 37997 ft | 486 kts | 5° |
| 2026-05-07 09:39 | 43.99598 | -2.83640 | 38026 ft | 486 kts | 4° |
| 2026-05-07 09:39 | 44.06322 | -2.82567 | 38002 ft | 485 kts | 4° |
| 2026-05-07 09:40 | 44.13032 | -2.81495 | 38001 ft | 485 kts | 4° |
| 2026-05-07 09:40 | 44.19744 | -2.80420 | 38020 ft | 485 kts | 4° |
| 2026-05-07 09:41 | 44.26451 | -2.79343 | 38008 ft | 485 kts | 4° |
| 2026-05-07 09:41 | 44.33159 | -2.78263 | 38009 ft | 485 kts | 4° |
| 2026-05-07 09:42 | 44.39821 | -2.77189 | 38022 ft | 485 kts | 4° |
| 2026-05-07 09:42 | 44.46521 | -2.76106 | 38011 ft | 484 kts | 4° |
| 2026-05-07 09:43 | 44.53216 | -2.75022 | 38015 ft | 484 kts | 5° |
| 2026-05-07 09:43 | 44.59910 | -2.73934 | 38026 ft | 484 kts | 5° |
| 2026-05-07 09:44 | 44.66595 | -2.72846 | 38023 ft | 483 kts | 5° |
| 2026-05-07 09:44 | 44.73279 | -2.71756 | 38023 ft | 483 kts | 5° |
| 2026-05-07 09:45 | 44.79915 | -2.70670 | 38021 ft | 483 kts | 5° |
| 2026-05-07 09:45 | 44.86603 | -2.69574 | 38027 ft | 483 kts | 5° |
| 2026-05-07 09:46 | 44.93288 | -2.68476 | 38028 ft | 483 kts | 5° |
| 2026-05-07 09:46 | 44.99973 | -2.67375 | 38021 ft | 483 kts | 5° |
| 2026-05-07 09:47 | 45.06601 | -2.66279 | 38018 ft | 483 kts | 4° |
| 2026-05-07 09:47 | 45.13285 | -2.65174 | 38024 ft | 483 kts | 4° |
| 2026-05-07 09:48 | 45.19962 | -2.64068 | 38030 ft | 483 kts | 5° |
| 2026-05-07 09:48 | 45.26626 | -2.62960 | 38032 ft | 482 kts | 5° |
| 2026-05-07 09:49 | 45.33299 | -2.61847 | 38027 ft | 482 kts | 5° |
| 2026-05-07 09:49 | 45.39966 | -2.60734 | 38031 ft | 482 kts | 5° |
| 2026-05-07 09:50 | 45.46632 | -2.59618 | 38033 ft | 482 kts | 5° |